createdAt,value
2023-02-27T00:01:57.605Z,6.00
2023-02-27T00:07:01.544Z,5.70
2023-02-27T00:12:05.012Z,6.30
2023-02-27T00:17:08.679Z,5.00
2023-02-27T00:22:13.250Z,5.80
2023-02-27T00:27:17.337Z,6.20
2023-02-27T00:32:22.101Z,6.80
2023-02-27T00:37:26.782Z,6.40
2023-02-27T00:42:31.282Z,6.20
2023-02-27T00:47:37.063Z,5.40
2023-02-27T00:52:41.007Z,5.70
2023-02-27T00:57:45.250Z,5.50
2023-02-27T01:02:50.657Z,5.60
2023-02-27T01:07:55.372Z,4.60
2023-02-27T01:12:59.053Z,4.80
2023-02-27T01:18:03.351Z,5.40
2023-02-27T01:23:06.954Z,5.00
2023-02-27T01:28:10.940Z,4.70
2023-02-27T01:33:14.714Z,3.70
2023-02-27T01:38:19.702Z,4.90
2023-02-27T01:43:24.509Z,5.10
2023-02-27T01:48:38.250Z,5.20
2023-02-27T01:53:44.321Z,5.20
2023-02-27T01:58:50.137Z,5.00
2023-02-27T02:04:27.347Z,4.70
2023-02-27T02:09:31.833Z,3.30
2023-02-27T02:14:35.443Z,4.30
2023-02-27T02:20:14.267Z,5.20
2023-02-27T02:25:53.069Z,4.90
2023-02-27T02:31:34.764Z,4.90
2023-02-27T02:48:19.891Z,3.70
2023-02-27T02:53:42.408Z,2.90
2023-02-27T02:59:18.040Z,4.60
2023-02-27T03:04:36.979Z,3.90
2023-02-27T03:09:58.241Z,3.70
2023-02-27T03:15:23.603Z,3.70
2023-02-27T03:20:34.798Z,3.60
2023-02-27T03:25:40.587Z,3.40
2023-02-27T03:31:22.577Z,3.70
2023-02-27T03:36:33.710Z,3.80
2023-02-27T03:41:45.487Z,3.40
2023-02-27T03:47:02.873Z,2.60
2023-02-27T03:52:07.483Z,3.90
2023-02-27T03:57:13.694Z,3.80
2023-02-27T04:02:17.591Z,3.20
2023-02-27T04:08:04.033Z,3.50
2023-02-27T04:13:19.622Z,3.00
2023-02-27T04:19:12.124Z,2.90
2023-02-27T04:24:34.707Z,4.60
2023-02-27T04:29:50.200Z,4.00
2023-02-27T04:35:00.863Z,3.40
2023-02-27T04:40:12.266Z,3.20
2023-02-27T04:45:19.645Z,3.70
2023-02-27T04:50:26.863Z,3.70
2023-02-27T04:55:34.904Z,3.90
2023-02-27T05:00:41.275Z,2.60
2023-02-27T05:05:47.374Z,3.30
2023-02-27T05:10:58.477Z,3.10
2023-02-27T05:16:34.408Z,3.00
2023-02-27T05:21:44.166Z,3.80
2023-02-27T05:27:06.975Z,4.20
2023-02-27T05:32:27.232Z,3.40
2023-02-27T05:37:37.915Z,4.60
2023-02-27T05:42:45.789Z,4.00
2023-02-27T05:47:56.264Z,4.10
2023-02-27T05:53:04.137Z,4.20
2023-02-27T05:58:19.991Z,3.90
2023-02-27T06:03:23.837Z,3.60
2023-02-27T06:08:28.137Z,3.30
2023-02-27T06:13:31.680Z,3.70
2023-02-27T06:18:35.729Z,3.30
2023-02-27T06:23:39.441Z,3.80
2023-02-27T06:28:44.520Z,2.20
2023-02-27T06:33:49.076Z,3.10
2023-02-27T06:38:53.232Z,3.30
2023-02-27T06:43:58.309Z,3.00
2023-02-27T06:49:02.555Z,3.10
2023-02-27T06:54:06.858Z,3.60
2023-02-27T06:59:13.169Z,3.50
2023-02-27T07:04:17.559Z,5.80
2023-02-27T07:09:21.342Z,3.90
2023-02-27T07:14:26.086Z,3.70
2023-02-27T07:19:29.712Z,3.60
2023-02-27T07:24:33.264Z,3.90
2023-02-27T07:29:36.998Z,3.70
2023-02-27T07:34:40.543Z,3.50
2023-02-27T07:39:45.236Z,4.90
2023-02-27T07:44:48.761Z,5.00
2023-02-27T07:49:52.374Z,4.70
2023-02-27T07:54:56.030Z,4.20
2023-02-27T07:59:59.564Z,4.10
2023-02-27T08:05:03.444Z,3.20
2023-02-27T08:10:07.916Z,3.60
2023-02-27T08:15:12.561Z,3.70
2023-02-27T08:20:17.236Z,4.30
2023-02-27T08:25:21.872Z,2.60
2023-02-27T08:30:25.589Z,3.90
2023-02-27T08:35:29.650Z,3.60
2023-02-27T08:40:33.531Z,3.00
2023-02-27T08:45:37.360Z,2.60
2023-02-27T08:50:41.211Z,2.50
2023-02-27T08:55:45.141Z,2.60
2023-02-27T09:00:49.535Z,2.60
2023-02-27T09:05:53.708Z,2.10
2023-02-27T09:10:58.188Z,2.00
2023-02-27T09:16:02.174Z,2.00
2023-02-27T09:21:06.005Z,2.70
2023-02-27T09:26:09.923Z,3.50
2023-02-27T09:31:14.065Z,3.90
2023-02-27T09:36:18.001Z,3.70
2023-02-27T09:41:29.647Z,3.40
2023-02-27T09:46:33.413Z,3.40
2023-02-27T09:51:37.229Z,4.00
2023-02-27T09:57:02.642Z,4.40
2023-02-27T10:02:41.166Z,3.90
2023-02-27T10:08:01.723Z,4.50
2023-02-27T10:13:27.932Z,4.40
2023-02-27T10:18:41.873Z,3.70
2023-02-27T10:24:07.613Z,3.80
2023-02-27T10:29:19.031Z,3.20
2023-02-27T10:34:23.420Z,5.20
2023-02-27T10:39:28.461Z,4.50
2023-02-27T10:44:34.515Z,3.70
2023-02-27T10:49:39.559Z,4.00
2023-02-27T10:54:43.743Z,3.90
2023-02-27T11:00:10.164Z,3.50
2023-02-27T11:05:26.568Z,3.10
2023-02-27T11:10:30.294Z,2.90
2023-02-27T11:15:38.589Z,2.90
2023-02-27T11:20:43.934Z,1.70
2023-02-27T11:25:48.005Z,2.80
2023-02-27T11:31:04.442Z,2.40
2023-02-27T11:36:09.418Z,1.90
2023-02-27T11:41:13.386Z,2.00
2023-02-27T11:46:47.231Z,1.80
2023-02-27T11:52:10.238Z,2.20
2023-02-27T11:57:30.375Z,2.80
2023-02-27T12:02:39.136Z,3.00
2023-02-27T12:07:55.237Z,2.90
2023-02-27T12:13:10.971Z,5.60
2023-02-27T12:18:20.918Z,3.50
2023-02-27T12:23:40.194Z,3.50
2023-02-27T12:28:44.282Z,4.00
2023-02-27T12:34:04.642Z,6.30
2023-02-27T12:39:18.133Z,5.70
2023-02-27T12:44:25.183Z,6.50
2023-02-27T12:49:51.973Z,11.90
2023-02-27T12:55:18.426Z,5.70
2023-02-27T13:00:41.915Z,3.40
2023-02-27T13:05:58.623Z,3.00
2023-02-27T13:11:15.184Z,5.40
2023-02-27T13:16:31.076Z,4.00
2023-02-27T13:22:01.372Z,4.70
2023-02-27T13:27:22.021Z,4.50
2023-02-27T13:32:44.495Z,5.20
2023-02-27T13:38:02.485Z,5.00
2023-02-27T13:43:30.676Z,6.00
2023-02-27T13:48:34.945Z,6.00
2023-02-27T13:53:38.866Z,5.80
2023-02-27T13:58:43.303Z,5.90
2023-02-27T14:03:58.520Z,7.60
2023-02-27T14:09:14.649Z,6.40
2023-02-27T14:14:47.698Z,5.80
2023-02-27T14:19:57.330Z,5.20
2023-02-27T14:25:32.413Z,4.40
2023-02-27T14:30:41.391Z,9.50
2023-02-27T14:35:47.558Z,7.20
2023-02-27T14:41:13.119Z,4.50
2023-02-27T14:46:29.088Z,3.80
2023-02-27T14:51:35.280Z,5.90
2023-02-27T14:56:39.889Z,6.50
2023-02-27T15:01:43.782Z,7.20
2023-02-27T15:06:50.072Z,5.80
2023-02-27T15:12:03.509Z,3.60
2023-02-27T15:17:19.903Z,10.80
2023-02-27T15:22:39.385Z,6.60
2023-02-27T15:27:47.179Z,5.70
2023-02-27T15:32:52.999Z,9.90
2023-02-27T15:38:00.410Z,8.70
2023-02-27T15:43:05.209Z,7.90
2023-02-27T15:48:14.298Z,6.80
2023-02-27T15:53:21.936Z,7.30
2023-02-27T15:58:30.817Z,9.10
2023-02-27T16:03:39.656Z,10.90
2023-02-27T16:08:47.275Z,10.70
2023-02-27T16:13:52.372Z,10.20
2023-02-27T16:19:00.951Z,10.80
2023-02-27T16:24:21.742Z,9.80
2023-02-27T16:29:37.469Z,10.10
2023-02-27T16:34:46.766Z,8.80
2023-02-27T16:40:02.219Z,8.80
2023-02-27T16:45:08.814Z,8.20
2023-02-27T16:50:22.484Z,12.80
2023-02-27T16:55:28.731Z,10.10
2023-02-27T17:00:35.425Z,11.30
2023-02-27T17:05:39.706Z,11.20
2023-02-27T17:10:45.688Z,15.30
2023-02-27T17:15:51.185Z,9.30
2023-02-27T17:21:02.175Z,10.30
2023-02-27T17:26:07.579Z,11.30
2023-02-27T17:31:23.937Z,19.70
2023-02-27T17:36:28.281Z,18.90
2023-02-27T17:41:35.854Z,26.50
2023-02-27T17:46:42.261Z,34.20
2023-02-27T17:51:47.561Z,26.10
2023-02-27T17:56:56.151Z,32.00
2023-02-27T18:02:03.392Z,25.20
2023-02-27T18:07:08.970Z,23.80
2023-02-27T18:12:15.291Z,24.60
2023-02-27T18:17:26.758Z,16.40
2023-02-27T18:22:34.590Z,17.80
2023-02-27T18:27:42.391Z,33.20
2023-02-27T18:32:47.377Z,31.10
2023-02-27T18:37:56.215Z,29.50
2023-02-27T18:43:03.898Z,33.60
2023-02-27T18:48:11.310Z,29.60
2023-02-27T18:53:16.815Z,28.70
2023-02-27T18:58:28.569Z,28.00
2023-02-27T19:03:37.239Z,24.40
2023-02-27T19:08:46.004Z,26.50
2023-02-27T19:13:52.697Z,41.10
2023-02-27T19:19:04.611Z,39.20
2023-02-27T19:24:13.953Z,38.00
2023-02-27T19:29:22.188Z,35.40
2023-02-27T19:34:29.160Z,27.10
2023-02-27T19:39:36.984Z,31.70
2023-02-27T19:44:46.182Z,22.10
2023-02-27T19:49:53.144Z,49.70
2023-02-27T19:55:03.768Z,27.50
2023-02-27T20:00:14.089Z,30.70
2023-02-27T20:05:22.274Z,30.70
2023-02-27T20:10:31.893Z,33.90
2023-02-27T20:15:45.428Z,31.50
2023-02-27T20:21:32.258Z,39.10
2023-02-27T20:26:44.033Z,36.20
2023-02-27T20:31:54.031Z,36.70
2023-02-27T20:37:01.549Z,35.20
2023-02-27T20:42:09.186Z,49.30
2023-02-27T20:47:16.022Z,54.40
2023-02-27T20:52:25.298Z,41.20
2023-02-27T20:57:32.623Z,40.10
2023-02-27T21:02:38.035Z,40.70
2023-02-27T21:07:47.840Z,37.20
2023-02-27T21:12:55.250Z,38.00
2023-02-27T21:18:02.715Z,37.50
2023-02-27T21:23:08.942Z,38.50
2023-02-27T21:28:14.689Z,34.80
2023-02-27T21:33:18.675Z,34.20
2023-02-27T21:38:22.858Z,28.60
2023-02-27T21:43:26.805Z,32.00
2023-02-27T21:48:31.044Z,30.10
2023-02-27T21:53:37.138Z,26.00
2023-02-27T21:58:40.950Z,29.80
2023-02-27T22:03:48.170Z,25.80
2023-02-27T22:08:59.116Z,20.30
2023-02-27T22:14:03.888Z,56.70
2023-02-27T22:19:12.170Z,23.30
2023-02-27T22:24:17.227Z,24.50
2023-02-27T22:29:25.931Z,23.70
2023-02-27T22:34:31.227Z,21.70
2023-02-27T22:39:35.195Z,16.10
2023-02-27T22:44:38.850Z,19.60
2023-02-27T22:49:45.312Z,17.60
2023-02-27T22:54:50.504Z,15.80
2023-02-27T22:59:56.183Z,25.40
2023-02-27T23:05:00.550Z,25.10
2023-02-27T23:10:09.994Z,57.30
2023-02-27T23:15:13.613Z,46.70
2023-02-27T23:20:17.601Z,34.50
2023-02-27T23:25:23.020Z,41.60
2023-02-27T23:30:27.114Z,30.00
2023-02-27T23:35:31.803Z,26.40
2023-02-27T23:40:36.441Z,26.40
2023-02-27T23:45:41.698Z,28.30
2023-02-27T23:50:46.234Z,32.80
2023-02-27T23:55:50.028Z,31.70
